Time;durP1;ratioP1;P1;durP2;ratioP2;P2;SDS_P1;SDS_P2;PMS_P1;PMS_P2;Temp;Humidity;BMP_temperature;BMP_pressure;BME280_temperature;BME280_humidity;BME280_pressure;Samples;Min_cycle;Max_cycle;Signal;HPM_P1;HPM_P2
2024/01/08 00:01:36;;;;;;;7.68;3.30;;;0.70;99.90;;;;;;5008700;28;20030;-55
2024/01/08 00:04:01;;;;;;;7.47;2.88;;;0.70;99.90;;;;;;5008809;28;20518;-58
2024/01/08 00:06:27;;;;;;;7.88;3.30;;;0.70;99.90;;;;;;5012395;28;20045;-55
2024/01/08 00:08:52;;;;;;;9.68;3.60;;;0.70;99.90;;;;;;5010091;28;20069;-52
2024/01/08 00:11:18;;;;;;;7.80;3.40;;;0.70;99.90;;;;;;5004310;28;20022;-56
2024/01/08 00:13:43;;;;;;;5.80;3.40;;;0.70;99.90;;;;;;5009260;28;20026;-54
2024/01/08 00:16:09;;;;;;;10.15;4.57;;;0.70;99.90;;;;;;5007497;28;20042;-55
2024/01/08 00:18:35;;;;;;;8.75;3.58;;;0.70;99.90;;;;;;5011187;28;20025;-56
2024/01/08 00:21:02;;;;;;;7.72;3.72;;;0.50;99.90;;;;;;5001038;28;20026;-56
2024/01/08 00:23:30;;;;;;;7.45;3.75;;;0.60;99.90;;;;;;5009221;28;20042;-56
2024/01/08 00:25:56;;;;;;;10.05;3.92;;;0.60;99.90;;;;;;5010880;28;20022;-53
2024/01/08 00:28:22;;;;;;;6.82;3.55;;;0.70;99.90;;;;;;5008020;28;20494;-55
2024/01/08 00:30:47;;;;;;;9.15;4.05;;;0.60;99.90;;;;;;5008330;28;20646;-54
2024/01/08 00:33:13;;;;;;;6.53;3.65;;;0.50;99.90;;;;;;5007553;28;20030;-57
2024/01/08 00:35:39;;;;;;;7.88;4.00;;;0.60;99.90;;;;;;5007921;28;20443;-52
2024/01/08 00:38:04;;;;;;;6.72;4.25;;;0.70;99.90;;;;;;5009228;28;20455;-57
2024/01/08 00:40:30;;;;;;;10.75;4.28;;;0.70;99.90;;;;;;5007312;28;20511;-54
2024/01/08 00:42:55;;;;;;;7.15;3.65;;;0.70;99.90;;;;;;5005166;28;20072;-59
2024/01/08 00:45:21;;;;;;;13.30;4.25;;;0.70;99.90;;;;;;5005518;28;20530;-55
2024/01/08 00:47:47;;;;;;;11.02;4.47;;;0.70;99.90;;;;;;5009927;28;20400;-55
2024/01/08 00:50:13;;;;;;;8.90;4.97;;;0.70;99.90;;;;;;5003435;28;20118;-57
2024/01/08 00:52:39;;;;;;;7.72;3.90;;;0.70;99.90;;;;;;5010803;28;20053;-54
2024/01/08 00:55:06;;;;;;;5.47;4.05;;;0.70;99.90;;;;;;5006154;28;20076;-54
2024/01/08 00:57:32;;;;;;;5.97;3.38;;;0.80;99.90;;;;;;5007640;28;20025;-55
2024/01/08 00:59:58;;;;;;;7.80;3.80;;;0.80;99.90;;;;;;5007699;28;20030;-52
2024/01/08 01:02:23;;;;;;;9.48;4.55;;;0.80;99.90;;;;;;5009018;28;20496;-53
2024/01/08 01:04:49;;;;;;;11.38;4.22;;;0.80;99.90;;;;;;5010114;28;20040;-58
2024/01/08 01:07:14;;;;;;;9.27;4.18;;;0.80;99.90;;;;;;5005092;28;20089;-55
2024/01/08 01:09:40;;;;;;;7.88;4.95;;;0.80;99.90;;;;;;5006442;28;20032;-52
2024/01/08 01:12:05;;;;;;;6.75;4.05;;;0.80;99.90;;;;;;5010049;28;20034;-56
2024/01/08 01:14:31;;;;;;;7.15;4.05;;;0.70;99.90;;;;;;5008086;28;20033;-54
2024/01/08 01:16:57;;;;;;;7.68;4.20;;;0.80;99.90;;;;;;5008965;28;20440;-56
2024/01/08 01:19:22;;;;;;;7.07;4.50;;;0.80;99.90;;;;;;5005655;28;20080;-54
2024/01/08 01:21:48;;;;;;;7.20;4.78;;;0.90;99.90;;;;;;5009919;28;20088;-54
2024/01/08 01:24:14;;;;;;;7.38;4.45;;;0.90;99.90;;;;;;5008542;28;20045;-56
2024/01/08 01:26:39;;;;;;;8.43;4.38;;;0.90;99.90;;;;;;5005242;28;20037;-54
2024/01/08 01:29:05;;;;;;;9.50;5.25;;;0.80;99.90;;;;;;4990308;28;20494;-54
2024/01/08 01:31:33;;;;;;;7.68;4.47;;;0.90;99.90;;;;;;5001972;28;20552;-56
2024/01/08 01:34:00;;;;;;;7.13;4.65;;;0.90;99.90;;;;;;5006729;28;20025;-52
2024/01/08 01:36:25;;;;;;;9.45;4.57;;;0.90;99.90;;;;;;5010499;28;20030;-55
2024/01/08 01:38:51;;;;;;;10.65;4.93;;;0.90;99.90;;;;;;5009043;28;20033;-54
2024/01/08 01:41:16;;;;;;;7.15;4.45;;;0.90;99.90;;;;;;4998051;28;20548;-57
2024/01/08 01:43:42;;;;;;;8.82;4.80;;;0.80;99.90;;;;;;5007804;28;20410;-56
2024/01/08 01:46:17;;;;;;;12.35;5.00;;;0.80;99.90;;;;;;5008208;28;20045;-57
2024/01/08 01:48:43;;;;;;;8.20;4.80;;;0.80;99.90;;;;;;5010084;28;20451;-53
2024/01/08 01:51:08;;;;;;;9.63;4.43;;;0.70;99.90;;;;;;5005588;28;20025;-54
2024/01/08 01:53:35;;;;;;;8.95;4.82;;;0.70;99.90;;;;;;5004445;28;20379;-57
2024/01/08 01:56:01;;;;;;;9.55;4.95;;;0.60;99.90;;;;;;5004673;28;20030;-55
2024/01/08 01:58:27;;;;;;;8.60;5.15;;;0.60;99.90;;;;;;5008096;28;20041;-56
2024/01/08 02:00:53;;;;;;;9.43;5.25;;;0.70;99.90;;;;;;5008541;28;20482;-53
2024/01/08 02:03:19;;;;;;;12.20;4.93;;;0.70;99.90;;;;;;5007780;28;20041;-57
2024/01/08 02:05:45;;;;;;;7.82;4.47;;;0.60;99.90;;;;;;5005949;28;20105;-57
2024/01/08 02:08:11;;;;;;;8.35;4.80;;;0.60;99.90;;;;;;5006063;28;20476;-56
2024/01/08 02:10:42;;;;;;;6.43;4.40;;;0.60;99.90;;;;;;5008535;28;20041;-54
2024/01/08 02:13:08;;;;;;;9.80;4.80;;;0.60;99.90;;;;;;5007000;28;20034;-55
2024/01/08 02:15:33;;;;;;;10.73;4.72;;;0.60;99.90;;;;;;5004159;28;20032;-55
2024/01/08 02:17:59;;;;;;;15.02;4.88;;;0.60;99.90;;;;;;4998461;28;20044;-55
2024/01/08 02:20:24;;;;;;;11.15;4.50;;;0.50;99.90;;;;;;5003121;28;20038;-56
2024/01/08 02:22:50;;;;;;;9.00;5.20;;;0.50;99.90;;;;;;5008476;28;20034;-54
2024/01/08 02:25:16;;;;;;;8.02;4.60;;;0.50;99.90;;;;;;5007274;28;20037;-55
2024/01/08 02:27:41;;;;;;;13.48;5.25;;;0.50;99.90;;;;;;5002068;28;20034;-55
2024/01/08 02:30:07;;;;;;;9.85;5.03;;;0.50;99.90;;;;;;5001540;28;20650;-56
2024/01/08 02:32:33;;;;;;;8.90;4.53;;;0.50;99.90;;;;;;5004287;28;20121;-56
2024/01/08 02:34:59;;;;;;;7.43;4.53;;;0.50;99.90;;;;;;5005978;28;20017;-57
2024/01/08 02:37:24;;;;;;;10.00;5.05;;;0.50;99.90;;;;;;5007485;28;20110;-54
2024/01/08 02:39:50;;;;;;;8.05;4.68;;;0.40;99.90;;;;;;5007236;28;20026;-57
2024/01/08 02:42:18;;;;;;;7.78;4.15;;;0.40;99.90;;;;;;5008536;28;20060;-53
2024/01/08 02:44:43;;;;;;;8.15;4.38;;;0.40;99.90;;;;;;5007097;28;20022;-56
2024/01/08 02:47:09;;;;;;;8.57;3.83;;;0.40;99.90;;;;;;5004746;28;20048;-57
2024/01/08 02:49:35;;;;;;;9.50;4.85;;;0.40;99.90;;;;;;5002256;28;20073;-54
2024/01/08 02:52:00;;;;;;;8.57;4.43;;;0.40;99.90;;;;;;5008141;28;20087;-54
2024/01/08 02:54:26;;;;;;;6.65;3.83;;;0.40;99.90;;;;;;5010677;28;20104;-56
2024/01/08 02:56:51;;;;;;;11.70;4.47;;;0.50;99.90;;;;;;5004760;28;20515;-55
2024/01/08 02:59:17;;;;;;;5.60;3.70;;;0.50;99.90;;;;;;5009627;28;20030;-57
2024/01/08 03:01:42;;;;;;;7.47;4.20;;;0.50;99.90;;;;;;5010403;28;20057;-53
2024/01/08 03:04:08;;;;;;;7.75;4.57;;;0.50;99.90;;;;;;5011222;28;20037;-52
2024/01/08 03:06:34;;;;;;;6.82;3.75;;;0.50;99.90;;;;;;5005675;28;20034;-58
2024/01/08 03:08:59;;;;;;;7.82;3.80;;;0.50;99.90;;;;;;5010235;28;20045;-57
2024/01/08 03:11:25;;;;;;;9.93;4.47;;;0.40;99.90;;;;;;5009672;28;20026;-53
2024/01/08 03:13:50;;;;;;;8.32;3.95;;;0.40;99.90;;;;;;5009829;28;20078;-52
2024/01/08 03:16:18;;;;;;;9.32;4.57;;;0.40;99.90;;;;;;5010342;28;20112;-57
2024/01/08 03:18:46;;;;;;;10.93;4.07;;;0.30;99.90;;;;;;5006989;28;20028;-53
2024/01/08 03:21:12;;;;;;;11.68;5.05;;;0.30;99.90;;;;;;5012545;28;20033;-53
2024/01/08 03:23:37;;;;;;;9.02;4.32;;;0.20;99.90;;;;;;5008588;28;20396;-53
2024/01/08 03:26:03;;;;;;;9.25;4.40;;;0.20;99.90;;;;;;5003783;28;20041;-54
2024/01/08 03:28:28;;;;;;;9.15;4.60;;;0.20;99.90;;;;;;5011071;28;20100;-57
2024/01/08 03:30:54;;;;;;;8.68;4.57;;;0.20;99.90;;;;;;5012430;28;20046;-54
2024/01/08 03:33:19;;;;;;;8.90;4.13;;;0.10;99.90;;;;;;5010387;28;20030;-54
2024/01/08 03:35:45;;;;;;;7.32;4.35;;;0.10;99.90;;;;;;4990396;28;20444;-57
2024/01/08 03:38:10;;;;;;;11.00;4.60;;;0.10;99.90;;;;;;5009940;28;20018;-54
2024/01/08 03:40:36;;;;;;;8.90;4.45;;;0.10;99.90;;;;;;4992096;28;20025;-51
2024/01/08 03:43:02;;;;;;;13.07;5.45;;;0.10;99.90;;;;;;5007316;28;20091;-53
2024/01/08 03:45:27;;;;;;;8.40;4.90;;;0.10;99.90;;;;;;5011315;28;20129;-56
2024/01/08 03:47:53;;;;;;;9.68;4.25;;;0.10;99.90;;;;;;5005550;28;20477;-53
2024/01/08 03:50:18;;;;;;;8.55;5.45;;;0.10;99.90;;;;;;5007489;28;20025;-56
2024/01/08 03:52:44;;;;;;;10.02;5.07;;;0.10;99.90;;;;;;5004411;28;20493;-58
2024/01/08 03:55:09;;;;;;;10.68;5.65;;;0.10;99.90;;;;;;5009760;28;20041;-55
2024/01/08 03:57:36;;;;;;;11.05;5.32;;;0.10;99.90;;;;;;5007360;28;20030;-57
2024/01/08 04:00:01;;;;;;;10.25;5.80;;;0.10;99.90;;;;;;5007012;28;20029;-54
2024/01/08 04:02:27;;;;;;;9.07;5.13;;;0.10;99.90;;;;;;5008487;28;20497;-56
2024/01/08 04:04:52;;;;;;;11.48;5.78;;;0.10;99.90;;;;;;5006413;28;20029;-57
2024/01/08 04:07:18;;;;;;;9.05;5.15;;;0.10;99.90;;;;;;5009617;28;20025;-55
2024/01/08 04:09:43;;;;;;;10.07;5.05;;;0.10;99.90;;;;;;5011585;28;20049;-56
2024/01/08 04:12:09;;;;;;;10.23;5.65;;;0.10;99.90;;;;;;5009022;28;20030;-56
2024/01/08 04:14:35;;;;;;;11.57;6.18;;;0.10;99.90;;;;;;5008007;28;20481;-53
2024/01/08 04:17:00;;;;;;;10.88;6.03;;;0.00;99.90;;;;;;5005015;28;20026;-53
2024/01/08 04:19:26;;;;;;;11.05;5.72;;;0.00;99.90;;;;;;5009388;28;20072;-52
2024/01/08 04:21:52;;;;;;;10.45;5.85;;;-0.10;99.90;;;;;;5010739;28;20077;-55
2024/01/08 04:24:17;;;;;;;12.23;7.32;;;-0.10;99.90;;;;;;5007759;28;20069;-53
2024/01/08 04:26:43;;;;;;;12.98;6.13;;;-0.10;99.90;;;;;;5008800;28;20055;-53
2024/01/08 04:29:10;;;;;;;12.35;5.60;;;-0.10;99.90;;;;;;5011167;28;20037;-54
2024/01/08 04:31:36;;;;;;;11.57;6.22;;;-0.10;99.90;;;;;;5006243;28;20120;-55
2024/01/08 04:34:02;;;;;;;14.02;7.18;;;-0.10;99.90;;;;;;5009171;28;20041;-52
2024/01/08 04:36:27;;;;;;;15.57;7.75;;;-0.10;99.90;;;;;;5007480;28;20030;-54
2024/01/08 04:38:53;;;;;;;14.25;7.18;;;-0.20;99.90;;;;;;5010418;28;20040;-56
2024/01/08 04:41:19;;;;;;;14.13;7.25;;;-0.10;99.90;;;;;;5009471;28;20017;-55
2024/01/08 04:43:46;;;;;;;11.77;6.55;;;-0.10;99.90;;;;;;5011136;28;20096;-54
2024/01/08 04:46:11;;;;;;;12.65;6.60;;;-0.10;99.90;;;;;;5008013;28;20034;-51
2024/01/08 04:48:37;;;;;;;16.45;7.15;;;-0.10;99.90;;;;;;5011498;28;20029;-57
2024/01/08 04:51:03;;;;;;;14.77;7.75;;;0.00;99.90;;;;;;5008586;28;20030;-54
2024/01/08 04:53:29;;;;;;;13.48;7.45;;;-0.10;99.90;;;;;;5008455;28;20026;-55
2024/01/08 04:55:55;;;;;;;16.85;7.50;;;-0.10;99.90;;;;;;5009183;28;20029;-57
2024/01/08 04:58:20;;;;;;;13.70;6.35;;;-0.10;99.90;;;;;;5006740;28;20258;-54
2024/01/08 05:00:46;;;;;;;19.15;8.32;;;-0.10;99.90;;;;;;5007955;28;20400;-55
2024/01/08 05:03:12;;;;;;;18.15;7.95;;;-0.10;99.90;;;;;;5006029;28;20032;-52
2024/01/08 05:05:38;;;;;;;17.90;8.68;;;-0.10;99.90;;;;;;5006970;28;20085;-53
2024/01/08 05:08:04;;;;;;;17.92;8.32;;;-0.20;99.90;;;;;;5010241;28;20033;-54
2024/01/08 05:10:29;;;;;;;14.30;8.13;;;-0.20;99.90;;;;;;5006292;28;20511;-55
2024/01/08 05:12:55;;;;;;;22.35;8.48;;;-0.20;99.90;;;;;;5006441;28;20029;-55
2024/01/08 05:15:20;;;;;;;15.95;9.40;;;-0.20;99.90;;;;;;5007006;28;20242;-59
2024/01/08 05:17:46;;;;;;;15.90;8.30;;;-0.20;99.90;;;;;;5007543;28;20125;-55
2024/01/08 05:20:11;;;;;;;16.90;8.48;;;-0.20;99.90;;;;;;5009063;28;21877;-51
2024/01/08 05:22:37;;;;;;;19.45;8.25;;;-0.20;99.90;;;;;;5006086;28;20030;-55
2024/01/08 05:25:03;;;;;;;16.80;8.25;;;-0.10;99.90;;;;;;5005020;28;20021;-52
2024/01/08 05:27:28;;;;;;;16.20;8.02;;;-0.10;99.90;;;;;;5004314;28;20030;-55
2024/01/08 05:29:54;;;;;;;15.57;8.52;;;-0.10;99.90;;;;;;5008974;28;20133;-55
2024/01/08 05:32:19;;;;;;;18.58;8.48;;;-0.10;99.90;;;;;;5004031;28;20024;-58
2024/01/08 05:34:45;;;;;;;14.52;8.52;;;-0.10;99.90;;;;;;5006379;28;20626;-56
2024/01/08 05:37:10;;;;;;;15.32;8.23;;;-0.20;99.90;;;;;;5004612;28;20213;-55
2024/01/08 05:39:36;;;;;;;17.55;8.05;;;-0.20;99.90;;;;;;5005722;28;20097;-58
2024/01/08 05:42:02;;;;;;;19.17;8.85;;;-0.20;99.90;;;;;;5006514;28;20057;-56
2024/01/08 05:44:28;;;;;;;17.67;9.25;;;-0.30;99.90;;;;;;5004253;28;20072;-56
2024/01/08 05:46:53;;;;;;;22.92;9.57;;;-0.30;99.90;;;;;;5008595;28;20044;-53
2024/01/08 05:49:19;;;;;;;17.65;9.35;;;-0.30;99.90;;;;;;5008725;28;20580;-55
2024/01/08 05:51:44;;;;;;;20.10;9.85;;;-0.30;99.90;;;;;;5002406;28;20095;-59
2024/01/08 05:54:10;;;;;;;18.10;9.93;;;-0.20;99.90;;;;;;5004440;28;20089;-53
2024/01/08 05:56:37;;;;;;;21.60;10.82;;;-0.20;99.90;;;;;;5001132;28;20139;-53
2024/01/08 05:59:03;;;;;;;18.08;10.20;;;-0.20;99.90;;;;;;5004032;28;20018;-54
2024/01/08 06:01:28;;;;;;;19.52;9.52;;;-0.20;99.90;;;;;;5005165;28;20029;-54
2024/01/08 06:03:54;;;;;;;20.90;10.38;;;-0.20;99.90;;;;;;5002510;28;20407;-54
2024/01/08 06:06:20;;;;;;;24.20;10.50;;;-0.20;99.90;;;;;;5007212;28;20036;-55
2024/01/08 06:08:46;;;;;;;19.98;9.68;;;-0.10;99.90;;;;;;5003562;28;20428;-54
2024/01/08 06:11:11;;;;;;;21.95;10.00;;;-0.10;99.90;;;;;;5004726;28;20026;-57
2024/01/08 06:13:37;;;;;;;18.30;9.68;;;-0.10;99.90;;;;;;5006452;28;20096;-50
2024/01/08 06:16:03;;;;;;;19.17;10.13;;;-0.10;99.90;;;;;;5007606;28;20044;-53
2024/01/08 06:18:29;;;;;;;19.10;9.15;;;-0.20;99.90;;;;;;5007279;28;20024;-53
2024/01/08 06:20:55;;;;;;;19.58;9.52;;;-0.10;99.90;;;;;;5007036;28;20026;-53
2024/01/08 06:23:21;;;;;;;16.13;8.23;;;-0.10;99.90;;;;;;5003401;28;20076;-55
2024/01/08 06:25:47;;;;;;;18.17;9.00;;;-0.10;99.90;;;;;;5002859;28;20034;-57
2024/01/08 06:28:12;;;;;;;15.85;8.15;;;0.00;99.90;;;;;;5004646;28;20026;-55
2024/01/08 06:30:38;;;;;;;17.52;8.25;;;0.00;99.90;;;;;;5007606;28;20062;-55
2024/01/08 06:33:05;;;;;;;14.57;7.07;;;0.10;99.90;;;;;;5004380;28;20514;-55
2024/01/08 06:35:30;;;;;;;15.20;7.68;;;0.10;99.90;;;;;;5005260;28;20037;-57
2024/01/08 06:37:56;;;;;;;16.25;8.35;;;0.10;99.90;;;;;;5002067;28;20389;-53
2024/01/08 06:40:22;;;;;;;13.68;7.03;;;0.10;99.90;;;;;;5005540;28;20538;-52
2024/01/08 06:42:47;;;;;;;15.95;7.40;;;0.00;99.90;;;;;;4999834;28;20022;-56
2024/01/08 06:45:13;;;;;;;15.40;7.38;;;0.00;99.90;;;;;;5009214;28;20044;-56
2024/01/08 06:47:39;;;;;;;12.85;6.78;;;-0.10;99.90;;;;;;5004289;28;20034;-55
2024/01/08 06:50:05;;;;;;;12.15;7.70;;;-0.10;99.90;;;;;;5004849;28;20463;-53
2024/01/08 06:52:31;;;;;;;12.63;6.18;;;0.00;99.90;;;;;;5005988;28;20029;-51
2024/01/08 06:54:56;;;;;;;13.02;7.68;;;0.00;99.90;;;;;;5003591;28;20441;-53
2024/01/08 06:57:22;;;;;;;14.82;7.05;;;0.00;99.90;;;;;;5005958;28;20108;-57
2024/01/08 06:59:48;;;;;;;11.90;6.97;;;0.00;99.90;;;;;;5005515;28;20124;-56
2024/01/08 07:02:14;;;;;;;14.93;7.43;;;0.00;99.90;;;;;;5006300;28;20032;-57
2024/01/08 07:04:39;;;;;;;14.35;6.85;;;0.10;99.90;;;;;;5004374;28;20042;-53
2024/01/08 07:07:05;;;;;;;15.90;7.38;;;0.10;99.90;;;;;;5005094;28;20073;-55
2024/01/08 07:09:30;;;;;;;13.48;6.95;;;0.10;99.90;;;;;;5006382;28;20034;-56
2024/01/08 07:11:57;;;;;;;11.18;6.57;;;0.10;99.90;;;;;;5003147;28;20037;-55
2024/01/08 07:14:22;;;;;;;10.20;5.43;;;0.10;99.90;;;;;;5005861;28;20041;-60
2024/01/08 07:16:48;;;;;;;12.20;5.90;;;0.10;99.90;;;;;;5003273;28;20401;-55
2024/01/08 07:19:13;;;;;;;13.18;5.88;;;0.10;99.90;;;;;;5007909;28;20483;-56
2024/01/08 07:21:39;;;;;;;10.32;6.38;;;0.10;99.90;;;;;;5006675;28;20033;-56
2024/01/08 07:24:05;;;;;;;9.55;5.38;;;0.10;99.90;;;;;;5005588;28;20030;-53
2024/01/08 07:26:30;;;;;;;12.48;5.35;;;0.20;99.90;;;;;;5007194;28;20042;-54
2024/01/08 07:28:56;;;;;;;9.15;5.80;;;0.20;99.90;;;;;;5003821;28;20033;-56
2024/01/08 07:31:21;;;;;;;10.07;5.75;;;0.20;99.90;;;;;;5005718;28;20156;-53
2024/01/08 07:33:47;;;;;;;9.77;5.90;;;0.20;99.90;;;;;;5005230;28;20374;-58
2024/01/08 07:36:13;;;;;;;9.82;4.57;;;0.20;99.90;;;;;;5008752;28;20030;-53
2024/01/08 07:38:39;;;;;;;9.98;5.82;;;0.20;99.90;;;;;;5005976;28;20026;-54
2024/01/08 07:41:07;;;;;;;9.57;5.30;;;0.20;99.90;;;;;;5005562;28;20121;-54
2024/01/08 07:43:32;;;;;;;10.15;5.47;;;0.30;99.90;;;;;;5006082;28;20108;-55
2024/01/08 07:45:58;;;;;;;11.20;5.38;;;0.30;99.90;;;;;;5007065;28;20438;-56
2024/01/08 07:48:23;;;;;;;9.85;6.30;;;0.30;99.90;;;;;;5007311;28;20503;-51
2024/01/08 07:50:49;;;;;;;9.10;5.13;;;0.30;99.90;;;;;;5002873;28;20113;-55
2024/01/08 07:53:16;;;;;;;8.65;4.55;;;0.30;99.90;;;;;;5007224;28;20056;-55
2024/01/08 07:55:42;;;;;;;8.48;4.72;;;0.30;99.90;;;;;;5005834;28;20428;-51
2024/01/08 07:58:09;;;;;;;8.52;4.50;;;0.30;99.90;;;;;;5004884;28;20029;-54
2024/01/08 08:00:35;;;;;;;9.95;5.28;;;0.20;99.90;;;;;;5002790;28;20030;-57
2024/01/08 08:03:00;;;;;;;6.30;4.00;;;0.30;99.90;;;;;;5005559;28;20436;-55
2024/01/08 08:05:26;;;;;;;10.57;4.40;;;0.30;99.90;;;;;;5006314;28;20049;-55
2024/01/08 08:07:52;;;;;;;7.22;4.25;;;0.40;99.90;;;;;;5004065;28;20041;-55
2024/01/08 08:10:18;;;;;;;6.10;3.70;;;0.40;99.90;;;;;;5007230;28;20041;-56
2024/01/08 08:12:43;;;;;;;7.85;4.22;;;0.30;99.90;;;;;;5004771;28;20026;-57
2024/01/08 08:15:10;;;;;;;6.90;3.90;;;0.40;99.90;;;;;;5005865;28;20041;-53
2024/01/08 08:17:39;;;;;;;5.82;3.75;;;0.40;99.90;;;;;;5005584;28;20034;-57
2024/01/08 08:20:05;;;;;;;8.90;4.22;;;0.40;99.90;;;;;;5004772;28;20029;-55
2024/01/08 08:22:31;;;;;;;8.65;4.13;;;0.40;99.90;;;;;;5006297;28;20030;-53
2024/01/08 08:24:57;;;;;;;7.85;4.05;;;0.40;99.90;;;;;;5005743;28;20040;-54
2024/01/08 08:27:23;;;;;;;9.27;4.13;;;0.40;99.90;;;;;;5003641;28;20029;-54
2024/01/08 08:29:49;;;;;;;7.43;3.50;;;0.40;99.90;;;;;;5006678;28;20140;-55
2024/01/08 08:32:15;;;;;;;8.45;3.70;;;0.40;99.90;;;;;;5006310;28;20054;-53
2024/01/08 08:34:40;;;;;;;6.55;3.38;;;0.40;99.90;;;;;;5005503;28;20042;-53
2024/01/08 08:37:09;;;;;;;5.05;3.38;;;0.40;99.90;;;;;;5007466;28;20033;-51
2024/01/08 08:39:36;;;;;;;6.65;4.18;;;0.40;99.90;;;;;;5005015;28;20017;-57
2024/01/08 08:42:02;;;;;;;8.23;3.88;;;0.50;99.90;;;;;;5008075;28;20022;-56
2024/01/08 08:44:28;;;;;;;6.85;4.13;;;0.50;99.90;;;;;;5005723;28;20049;-57
2024/01/08 08:46:54;;;;;;;4.70;2.83;;;0.50;99.90;;;;;;5007354;28;20048;-57
2024/01/08 08:49:20;;;;;;;8.52;3.88;;;0.60;99.90;;;;;;5007970;28;20030;-55
2024/01/08 08:51:46;;;;;;;6.05;3.80;;;0.60;99.90;;;;;;5005535;28;20518;-58
2024/01/08 08:54:11;;;;;;;10.15;3.78;;;0.60;99.90;;;;;;5004870;28;20109;-54
2024/01/08 08:56:38;;;;;;;9.05;4.50;;;0.60;99.90;;;;;;5007458;28;20026;-54
2024/01/08 08:59:04;;;;;;;6.03;3.05;;;0.60;99.90;;;;;;5005152;28;20021;-58
2024/01/08 09:01:30;;;;;;;6.90;3.38;;;0.60;99.90;;;;;;5004114;28;20033;-52
2024/01/08 09:03:55;;;;;;;7.10;3.55;;;0.70;99.90;;;;;;5005911;28;20397;-52
2024/01/08 09:06:25;;;;;;;8.25;3.58;;;0.70;99.90;;;;;;5007087;28;20041;-53
2024/01/08 09:08:51;;;;;;;5.53;3.20;;;0.70;99.90;;;;;;5004460;28;20034;-56
2024/01/08 09:11:17;;;;;;;7.45;4.28;;;0.70;99.90;;;;;;5002822;28;20554;-55
2024/01/08 09:13:43;;;;;;;6.97;3.80;;;0.80;99.90;;;;;;5002768;28;20038;-56
2024/01/08 09:16:13;;;;;;;7.38;3.97;;;0.80;99.90;;;;;;5005083;28;20034;-57
2024/01/08 09:18:42;;;;;;;5.78;3.20;;;0.80;99.90;;;;;;5000385;28;20496;-56
2024/01/08 09:21:11;;;;;;;10.05;4.50;;;0.80;99.90;;;;;;5002176;28;20033;-56
2024/01/08 09:23:38;;;;;;;8.77;4.00;;;0.80;99.90;;;;;;5004428;28;20429;-56
2024/01/08 09:26:04;;;;;;;8.45;3.65;;;0.80;99.90;;;;;;5004066;28;20026;-55
2024/01/08 09:28:33;;;;;;;8.60;4.25;;;0.90;99.90;;;;;;5006652;28;20113;-53
2024/01/08 09:31:00;;;;;;;9.02;4.15;;;0.80;99.90;;;;;;5001655;28;20117;-53
2024/01/08 09:33:26;;;;;;;8.32;4.53;;;0.80;99.90;;;;;;5002937;28;20122;-55
2024/01/08 09:35:52;;;;;;;9.13;4.82;;;0.80;99.90;;;;;;5005370;28;20117;-54
2024/01/08 09:38:17;;;;;;;7.28;4.07;;;0.80;99.90;;;;;;5005734;28;20018;-54
2024/01/08 09:40:43;;;;;;;8.18;4.40;;;0.80;99.90;;;;;;5004454;28;20465;-55
2024/01/08 09:43:09;;;;;;;8.35;4.88;;;0.70;99.90;;;;;;5003624;28;20038;-57
2024/01/08 09:45:42;;;;;;;7.07;4.47;;;0.70;99.90;;;;;;5003898;28;20200;-57
2024/01/08 09:48:09;;;;;;;9.10;5.28;;;0.70;99.90;;;;;;5003919;28;20148;-53
2024/01/08 09:50:37;;;;;;;14.07;5.47;;;0.70;99.90;;;;;;5005091;28;20037;-56
2024/01/08 09:53:03;;;;;;;9.27;4.90;;;0.50;99.90;;;;;;5000223;28;20033;-58
2024/01/08 09:55:30;;;;;;;7.65;3.92;;;0.50;99.90;;;;;;5003539;28;20033;-58
2024/01/08 09:57:55;;;;;;;6.80;4.22;;;0.50;99.90;;;;;;5004717;28;20057;-56
2024/01/08 10:00:21;;;;;;;10.13;4.47;;;0.60;99.90;;;;;;5007375;28;20068;-56
2024/01/08 10:02:54;;;;;;;12.93;5.05;;;0.60;99.90;;;;;;5008974;28;20381;-57
2024/01/08 10:05:21;;;;;;;7.03;4.25;;;0.60;99.90;;;;;;5012223;28;20534;-54
2024/01/08 10:07:47;;;;;;;8.23;4.93;;;0.60;99.90;;;;;;5007813;28;20030;-58
2024/01/08 10:10:13;;;;;;;11.07;5.15;;;0.70;99.90;;;;;;5009415;28;20116;-54
2024/01/08 10:12:39;;;;;;;7.57;4.65;;;0.70;99.90;;;;;;5006201;28;20560;-56
2024/01/08 10:15:05;;;;;;;8.73;4.75;;;0.80;99.90;;;;;;5011018;28;20025;-53
2024/01/08 10:17:31;;;;;;;10.52;4.80;;;1.00;99.90;;;;;;5013167;28;20388;-52
2024/01/08 10:20:08;;;;;;;9.23;4.28;;;1.20;99.90;;;;;;5011495;28;20018;-56
2024/01/08 10:22:33;;;;;;;8.52;3.95;;;1.40;99.90;;;;;;5008181;28;20317;-57
2024/01/08 10:25:02;;;;;;;8.68;4.28;;;1.60;99.90;;;;;;5009798;28;20118;-53
2024/01/08 10:27:29;;;;;;;8.82;4.60;;;1.70;99.90;;;;;;5008383;28;20030;-53
2024/01/08 10:29:55;;;;;;;8.82;4.07;;;1.60;99.90;;;;;;5010997;28;20084;-54
2024/01/08 10:32:23;;;;;;;9.40;4.90;;;1.70;99.90;;;;;;5010193;28;20030;-57
2024/01/08 10:34:49;;;;;;;9.05;3.70;;;1.80;99.90;;;;;;5008465;28;20501;-57
2024/01/08 10:37:15;;;;;;;6.63;3.90;;;1.70;99.90;;;;;;5012195;28;20025;-56
2024/01/08 10:39:42;;;;;;;6.00;3.47;;;1.60;99.90;;;;;;5010188;28;20520;-57
2024/01/08 10:42:09;;;;;;;8.60;4.18;;;1.50;99.90;;;;;;5010256;28;20057;-55
2024/01/08 10:44:35;;;;;;;6.88;3.95;;;1.40;99.90;;;;;;5009666;28;20033;-57
2024/01/08 10:47:06;;;;;;;9.15;4.35;;;1.30;99.90;;;;;;5009375;28;20044;-54
2024/01/08 10:49:33;;;;;;;6.53;3.78;;;1.30;99.90;;;;;;5011908;28;20083;-57
2024/01/08 10:52:14;;;;;;;9.40;4.78;;;1.30;99.90;;;;;;5006333;28;20038;-54
2024/01/08 10:54:50;;;;;;;9.93;4.70;;;1.40;99.90;;;;;;5009797;28;20038;-55
2024/01/08 10:57:19;;;;;;;8.88;4.05;;;1.50;99.90;;;;;;5005836;28;20083;-55
2024/01/08 10:59:46;;;;;;;8.38;4.03;;;1.50;99.90;;;;;;5009826;28;20040;-57
2024/01/08 11:02:14;;;;;;;7.50;4.05;;;1.60;99.90;;;;;;5009827;28;20077;-54
2024/01/08 11:04:42;;;;;;;8.15;4.32;;;1.60;99.90;;;;;;5013555;28;20049;-54
2024/01/08 11:07:11;;;;;;;10.52;4.45;;;1.60;99.90;;;;;;5011412;28;20037;-54
2024/01/08 11:09:37;;;;;;;9.00;4.32;;;1.60;99.90;;;;;;5009182;28;20030;-56
2024/01/08 11:12:03;;;;;;;5.72;3.47;;;1.50;99.90;;;;;;5008203;28;20543;-52
2024/01/08 11:14:29;;;;;;;6.93;3.67;;;1.50;99.90;;;;;;5008851;28;20030;-56
2024/01/08 11:16:55;;;;;;;8.85;4.20;;;1.50;99.90;;;;;;5007481;28;20041;-55
2024/01/08 11:19:21;;;;;;;11.10;4.25;;;1.70;99.90;;;;;;5006158;28;20030;-59
2024/01/08 11:21:55;;;;;;;8.55;4.45;;;1.80;99.90;;;;;;5007052;28;20060;-59
2024/01/08 11:24:20;;;;;;;;;;;1.90;99.90;;;;;;5007568;28;20018;-57
2024/01/08 11:26:49;;;;;;;11.48;5.03;;;2.00;99.90;;;;;;5004059;28;19916;-55
2024/01/08 11:29:16;;;;;;;10.43;5.00;;;2.10;99.90;;;;;;5008564;28;20022;-55
2024/01/08 11:31:53;;;;;;;9.18;3.88;;;2.00;99.90;;;;;;5003670;28;20575;-53
2024/01/08 11:34:52;;;;;;;7.22;3.72;;;2.00;99.90;;;;;;5005807;28;20544;-55
2024/01/08 11:37:29;;;;;;;6.53;3.53;;;1.90;99.90;;;;;;5002094;28;20092;-57
2024/01/08 11:39:55;;;;;;;6.72;3.50;;;1.90;99.90;;;;;;5007194;28;20042;-54
2024/01/08 11:42:24;;;;;;;8.38;3.47;;;1.80;99.90;;;;;;5008724;28;20068;-56
2024/01/08 11:44:49;;;;;;;6.55;3.38;;;1.90;99.90;;;;;;5009494;28;20084;-55
2024/01/08 11:47:16;;;;;;;8.30;3.95;;;1.90;99.90;;;;;;5007469;28;20030;-57
2024/01/08 11:49:41;;;;;;;6.63;3.58;;;1.80;99.90;;;;;;5005654;28;20025;-57
2024/01/08 11:52:09;;;;;;;7.15;3.35;;;2.00;99.90;;;;;;5007887;28;20035;-58
2024/01/08 11:54:35;;;;;;;8.65;3.58;;;2.00;99.90;;;;;;5002249;28;20037;-56
2024/01/08 11:57:02;;;;;;;7.55;4.28;;;2.10;99.90;;;;;;5005299;28;20026;-54
2024/01/08 11:59:35;;;;;;;8.80;3.90;;;2.00;99.90;;;;;;5003712;28;20048;-53
2024/01/08 12:02:12;;;;;;;5.70;2.97;;;2.00;99.90;;;;;;5005744;28;20033;-53
2024/01/08 12:04:38;;;;;;;14.00;3.38;;;2.00;99.90;;;;;;5006453;28;20029;-55
2024/01/08 12:07:04;;;;;;;9.63;3.45;;;1.90;97.20;;;;;;5007482;28;20737;-56
2024/01/08 12:09:31;;;;;;;5.07;2.67;;;1.70;95.60;;;;;;5003331;28;20029;-57
2024/01/08 12:12:08;;;;;;;8.02;2.85;;;1.80;94.70;;;;;;5005977;28;20484;-53
2024/01/08 12:14:34;;;;;;;9.95;2.53;;;1.90;93.80;;;;;;5004389;28;20034;-54
2024/01/08 12:17:01;;;;;;;5.13;2.60;;;2.00;91.90;;;;;;5006043;28;20030;-54
2024/01/08 12:19:42;;;;;;;3.10;2.33;;;2.00;91.10;;;;;;5002763;28;20026;-54
2024/01/08 12:22:12;;;;;;;5.60;2.63;;;2.00;90.20;;;;;;5000765;28;20323;-53
2024/01/08 12:24:42;;;;;;;5.32;2.53;;;1.80;92.20;;;;;;4981543;28;20022;-54
2024/01/08 12:27:08;;;;;;;7.43;2.30;;;1.90;92.10;;;;;;5005408;28;20113;-53
2024/01/08 12:29:38;;;;;;;7.22;2.90;;;1.90;92.30;;;;;;5005983;28;20424;-53
2024/01/08 12:32:06;;;;;;;3.65;2.78;;;1.90;91.80;;;;;;4986639;28;20041;-51
2024/01/08 12:34:32;;;;;;;6.68;3.42;;;2.20;91.60;;;;;;5007805;28;20041;-54
2024/01/08 12:36:59;;;;;;;17.23;3.25;;;2.40;91.30;;;;;;5000910;28;20152;-52
2024/01/08 12:39:30;;;;;;;6.40;3.15;;;2.50;88.40;;;;;;5010902;28;20022;-54
2024/01/08 12:41:58;;;;;;;6.03;3.03;;;2.50;87.40;;;;;;5003084;28;20407;-55
2024/01/08 12:44:30;;;;;;;9.18;3.10;;;2.40;90.10;;;;;;5002614;28;20068;-56
2024/01/08 12:46:57;;;;;;;8.02;3.45;;;2.70;90.60;;;;;;5002283;28;20032;-55